sensor_id;sensor_type;location;lat;lon;timestamp;P1;durP1;ratioP1;P2;durP2;ratioP2
59856;SDS011;45733;52.668;6.860;2024-02-15T00:00:37;3.60;;;3.40;;
59856;SDS011;45733;52.668;6.860;2024-02-15T00:03:04;3.28;;;3.08;;
59856;SDS011;45733;52.668;6.860;2024-02-15T00:05:37;3.35;;;3.15;;
59856;SDS011;45733;52.668;6.860;2024-02-15T00:08:03;3.75;;;3.55;;
59856;SDS011;45733;52.668;6.860;2024-02-15T00:10:29;3.53;;;3.33;;
59856;SDS011;45733;52.668;6.860;2024-02-15T00:12:55;3.38;;;3.17;;
59856;SDS011;45733;52.668;6.860;2024-02-15T00:15:21;4.05;;;3.85;;
59856;SDS011;45733;52.668;6.860;2024-02-15T00:17:46;3.28;;;3.08;;
59856;SDS011;45733;52.668;6.860;2024-02-15T00:20:12;3.53;;;3.33;;
59856;SDS011;45733;52.668;6.860;2024-02-15T00:22:38;4.13;;;3.92;;
59856;SDS011;45733;52.668;6.860;2024-02-15T00:25:06;4.45;;;4.25;;
59856;SDS011;45733;52.668;6.860;2024-02-15T00:27:34;4.22;;;4.00;;
59856;SDS011;45733;52.668;6.860;2024-02-15T00:30:01;3.78;;;3.58;;
59856;SDS011;45733;52.668;6.860;2024-02-15T00:32:27;3.67;;;3.47;;
59856;SDS011;45733;52.668;6.860;2024-02-15T00:34:53;3.17;;;2.97;;
59856;SDS011;45733;52.668;6.860;2024-02-15T00:37:18;2.95;;;2.83;;
59856;SDS011;45733;52.668;6.860;2024-02-15T00:39:50;3.42;;;3.22;;
59856;SDS011;45733;52.668;6.860;2024-02-15T00:42:43;3.13;;;2.92;;
59856;SDS011;45733;52.668;6.860;2024-02-15T00:45:09;2.92;;;2.80;;
59856;SDS011;45733;52.668;6.860;2024-02-15T00:47:36;2.70;;;2.60;;
59856;SDS011;45733;52.668;6.860;2024-02-15T00:50:03;2.75;;;2.65;;
59856;SDS011;45733;52.668;6.860;2024-02-15T00:52:31;3.00;;;2.88;;
59856;SDS011;45733;52.668;6.860;2024-02-15T00:55:00;3.05;;;2.90;;
59856;SDS011;45733;52.668;6.860;2024-02-15T00:57:26;3.25;;;3.05;;
59856;SDS011;45733;52.668;6.860;2024-02-15T00:59:51;3.55;;;3.35;;
59856;SDS011;45733;52.668;6.860;2024-02-15T01:02:17;2.63;;;2.53;;
59856;SDS011;45733;52.668;6.860;2024-02-15T01:04:43;3.28;;;3.08;;
59856;SDS011;45733;52.668;6.860;2024-02-15T01:07:11;2.92;;;2.80;;
59856;SDS011;45733;52.668;6.860;2024-02-15T01:09:37;2.45;;;2.35;;
59856;SDS011;45733;52.668;6.860;2024-02-15T01:12:02;2.53;;;2.42;;
59856;SDS011;45733;52.668;6.860;2024-02-15T01:14:29;3.13;;;2.97;;
59856;SDS011;45733;52.668;6.860;2024-02-15T01:16:56;2.80;;;2.70;;
59856;SDS011;45733;52.668;6.860;2024-02-15T01:19:21;3.13;;;2.97;;
59856;SDS011;45733;52.668;6.860;2024-02-15T01:21:47;2.65;;;2.55;;
59856;SDS011;45733;52.668;6.860;2024-02-15T01:24:13;2.65;;;2.55;;
59856;SDS011;45733;52.668;6.860;2024-02-15T01:26:39;2.70;;;2.60;;
59856;SDS011;45733;52.668;6.860;2024-02-15T01:29:05;3.30;;;3.10;;
59856;SDS011;45733;52.668;6.860;2024-02-15T01:31:31;2.67;;;2.58;;
59856;SDS011;45733;52.668;6.860;2024-02-15T01:33:56;2.33;;;2.22;;
59856;SDS011;45733;52.668;6.860;2024-02-15T01:36:22;2.90;;;2.78;;
59856;SDS011;45733;52.668;6.860;2024-02-15T01:38:48;3.00;;;2.88;;
59856;SDS011;45733;52.668;6.860;2024-02-15T01:41:14;3.35;;;3.15;;
59856;SDS011;45733;52.668;6.860;2024-02-15T01:43:43;2.60;;;2.50;;
59856;SDS011;45733;52.668;6.860;2024-02-15T01:46:12;2.97;;;2.88;;
59856;SDS011;45733;52.668;6.860;2024-02-15T01:48:40;2.60;;;2.50;;
59856;SDS011;45733;52.668;6.860;2024-02-15T01:51:10;2.45;;;2.35;;
59856;SDS011;45733;52.668;6.860;2024-02-15T01:53:38;2.75;;;2.65;;
59856;SDS011;45733;52.668;6.860;2024-02-15T01:56:05;2.30;;;2.20;;
59856;SDS011;45733;52.668;6.860;2024-02-15T01:58:32;2.50;;;2.40;;
59856;SDS011;45733;52.668;6.860;2024-02-15T02:00:58;2.53;;;2.42;;
59856;SDS011;45733;52.668;6.860;2024-02-15T02:03:25;2.50;;;2.40;;
59856;SDS011;45733;52.668;6.860;2024-02-15T02:05:51;2.65;;;2.55;;
59856;SDS011;45733;52.668;6.860;2024-02-15T02:08:17;2.83;;;2.70;;
59856;SDS011;45733;52.668;6.860;2024-02-15T02:10:43;2.85;;;2.75;;
59856;SDS011;45733;52.668;6.860;2024-02-15T02:13:10;3.35;;;3.15;;
59856;SDS011;45733;52.668;6.860;2024-02-15T02:15:36;2.65;;;2.55;;
59856;SDS011;45733;52.668;6.860;2024-02-15T02:18:02;3.65;;;3.45;;
59856;SDS011;45733;52.668;6.860;2024-02-15T02:20:33;2.95;;;2.85;;
59856;SDS011;45733;52.668;6.860;2024-02-15T02:25:43;3.97;;;3.78;;
59856;SDS011;45733;52.668;6.860;2024-02-15T02:28:11;2.75;;;2.65;;
59856;SDS011;45733;52.668;6.860;2024-02-15T02:30:38;2.88;;;2.78;;
59856;SDS011;45733;52.668;6.860;2024-02-15T02:33:10;2.90;;;2.78;;
59856;SDS011;45733;52.668;6.860;2024-02-15T02:35:36;2.88;;;2.78;;
59856;SDS011;45733;52.668;6.860;2024-02-15T02:38:02;2.72;;;2.63;;
59856;SDS011;45733;52.668;6.860;2024-02-15T02:40:28;2.67;;;2.58;;
59856;SDS011;45733;52.668;6.860;2024-02-15T02:42:55;2.78;;;2.67;;
59856;SDS011;45733;52.668;6.860;2024-02-15T02:45:21;2.67;;;2.58;;
59856;SDS011;45733;52.668;6.860;2024-02-15T02:47:48;2.42;;;2.33;;
59856;SDS011;45733;52.668;6.860;2024-02-15T02:50:14;2.90;;;2.78;;
59856;SDS011;45733;52.668;6.860;2024-02-15T02:52:40;2.65;;;2.55;;
59856;SDS011;45733;52.668;6.860;2024-02-15T02:55:06;2.65;;;2.55;;
59856;SDS011;45733;52.668;6.860;2024-02-15T02:57:36;2.80;;;2.70;;
59856;SDS011;45733;52.668;6.860;2024-02-15T03:00:07;2.15;;;2.05;;
59856;SDS011;45733;52.668;6.860;2024-02-15T03:02:41;2.88;;;2.72;;
59856;SDS011;45733;52.668;6.860;2024-02-15T03:05:08;2.63;;;2.53;;
59856;SDS011;45733;52.668;6.860;2024-02-15T03:07:34;2.50;;;2.40;;
59856;SDS011;45733;52.668;6.860;2024-02-15T03:10:01;3.05;;;2.90;;
59856;SDS011;45733;52.668;6.860;2024-02-15T03:12:29;2.60;;;2.50;;
59856;SDS011;45733;52.668;6.860;2024-02-15T03:14:55;2.75;;;2.65;;
59856;SDS011;45733;52.668;6.860;2024-02-15T03:17:23;2.53;;;2.42;;
59856;SDS011;45733;52.668;6.860;2024-02-15T03:19:48;2.90;;;2.80;;
59856;SDS011;45733;52.668;6.860;2024-02-15T03:22:14;2.53;;;2.42;;
59856;SDS011;45733;52.668;6.860;2024-02-15T03:24:40;2.28;;;2.17;;
59856;SDS011;45733;52.668;6.860;2024-02-15T03:27:07;2.60;;;2.50;;
59856;SDS011;45733;52.668;6.860;2024-02-15T03:29:35;3.80;;;3.60;;
59856;SDS011;45733;52.668;6.860;2024-02-15T03:32:01;3.17;;;2.97;;
59856;SDS011;45733;52.668;6.860;2024-02-15T03:34:29;2.70;;;2.60;;
59856;SDS011;45733;52.668;6.860;2024-02-15T03:36:56;2.67;;;2.58;;
59856;SDS011;45733;52.668;6.860;2024-02-15T03:39:22;2.72;;;2.63;;
59856;SDS011;45733;52.668;6.860;2024-02-15T03:41:49;2.53;;;2.42;;
59856;SDS011;45733;52.668;6.860;2024-02-15T03:44:16;3.38;;;3.17;;
59856;SDS011;45733;52.668;6.860;2024-02-15T03:46:43;3.30;;;3.10;;
59856;SDS011;45733;52.668;6.860;2024-02-15T03:49:16;2.60;;;2.50;;
59856;SDS011;45733;52.668;6.860;2024-02-15T03:51:43;3.17;;;2.97;;
59856;SDS011;45733;52.668;6.860;2024-02-15T03:54:10;2.70;;;2.60;;
59856;SDS011;45733;52.668;6.860;2024-02-15T03:56:48;3.33;;;3.13;;
59856;SDS011;45733;52.668;6.860;2024-02-15T03:59:18;3.25;;;3.05;;
59856;SDS011;45733;52.668;6.860;2024-02-15T04:04:20;2.75;;;2.65;;
59856;SDS011;45733;52.668;6.860;2024-02-15T04:06:47;3.08;;;2.90;;
59856;SDS011;45733;52.668;6.860;2024-02-15T04:09:13;2.72;;;2.63;;
59856;SDS011;45733;52.668;6.860;2024-02-15T04:11:39;2.40;;;2.30;;
59856;SDS011;45733;52.668;6.860;2024-02-15T04:14:05;2.55;;;2.45;;
59856;SDS011;45733;52.668;6.860;2024-02-15T04:16:31;2.47;;;2.38;;
59856;SDS011;45733;52.668;6.860;2024-02-15T04:18:58;2.53;;;2.42;;
59856;SDS011;45733;52.668;6.860;2024-02-15T04:21:24;3.08;;;2.90;;
59856;SDS011;45733;52.668;6.860;2024-02-15T04:23:52;3.30;;;3.10;;
59856;SDS011;45733;52.668;6.860;2024-02-15T04:26:19;2.63;;;2.53;;
59856;SDS011;45733;52.668;6.860;2024-02-15T04:28:45;2.42;;;2.33;;
59856;SDS011;45733;52.668;6.860;2024-02-15T04:31:17;2.72;;;2.63;;
59856;SDS011;45733;52.668;6.860;2024-02-15T04:33:43;3.38;;;3.17;;
59856;SDS011;45733;52.668;6.860;2024-02-15T04:36:09;3.20;;;3.00;;
59856;SDS011;45733;52.668;6.860;2024-02-15T04:38:37;3.40;;;3.13;;
59856;SDS011;45733;52.668;6.860;2024-02-15T04:41:05;2.72;;;2.63;;
59856;SDS011;45733;52.668;6.860;2024-02-15T04:43:34;3.47;;;3.28;;
59856;SDS011;45733;52.668;6.860;2024-02-15T04:46:05;2.95;;;2.85;;
59856;SDS011;45733;52.668;6.860;2024-02-15T04:48:32;2.80;;;2.70;;
59856;SDS011;45733;52.668;6.860;2024-02-15T04:50:59;2.50;;;2.40;;
59856;SDS011;45733;52.668;6.860;2024-02-15T04:53:26;2.63;;;2.53;;
59856;SDS011;45733;52.668;6.860;2024-02-15T04:55:54;2.88;;;2.78;;
59856;SDS011;45733;52.668;6.860;2024-02-15T04:58:20;2.85;;;2.75;;
59856;SDS011;45733;52.668;6.860;2024-02-15T05:00:46;2.83;;;2.72;;
59856;SDS011;45733;52.668;6.860;2024-02-15T05:03:13;2.58;;;2.47;;
59856;SDS011;45733;52.668;6.860;2024-02-15T05:05:39;2.70;;;2.60;;
59856;SDS011;45733;52.668;6.860;2024-02-15T05:08:05;3.30;;;3.10;;
59856;SDS011;45733;52.668;6.860;2024-02-15T05:10:31;3.03;;;2.83;;
59856;SDS011;45733;52.668;6.860;2024-02-15T05:12:56;2.70;;;2.60;;
59856;SDS011;45733;52.668;6.860;2024-02-15T05:15:22;3.50;;;3.30;;
59856;SDS011;45733;52.668;6.860;2024-02-15T05:17:50;2.85;;;2.75;;
59856;SDS011;45733;52.668;6.860;2024-02-15T05:20:15;2.92;;;2.80;;
59856;SDS011;45733;52.668;6.860;2024-02-15T05:22:41;3.03;;;2.83;;
59856;SDS011;45733;52.668;6.860;2024-02-15T05:25:13;3.00;;;2.80;;
59856;SDS011;45733;52.668;6.860;2024-02-15T05:27:40;3.47;;;3.28;;
59856;SDS011;45733;52.668;6.860;2024-02-15T05:30:08;2.90;;;2.80;;
59856;SDS011;45733;52.668;6.860;2024-02-15T05:32:36;3.17;;;2.97;;
59856;SDS011;45733;52.668;6.860;2024-02-15T05:35:08;2.80;;;2.70;;
59856;SDS011;45733;52.668;6.860;2024-02-15T05:37:35;2.22;;;2.13;;
59856;SDS011;45733;52.668;6.860;2024-02-15T05:40:00;3.17;;;2.97;;
59856;SDS011;45733;52.668;6.860;2024-02-15T05:42:26;2.83;;;2.70;;
59856;SDS011;45733;52.668;6.860;2024-02-15T05:44:52;2.60;;;2.50;;
59856;SDS011;45733;52.668;6.860;2024-02-15T05:47:18;2.55;;;2.45;;
59856;SDS011;45733;52.668;6.860;2024-02-15T05:49:44;3.35;;;3.15;;
59856;SDS011;45733;52.668;6.860;2024-02-15T05:52:12;2.70;;;2.60;;
59856;SDS011;45733;52.668;6.860;2024-02-15T05:54:38;3.28;;;3.08;;
59856;SDS011;45733;52.668;6.860;2024-02-15T05:57:06;2.85;;;2.75;;
59856;SDS011;45733;52.668;6.860;2024-02-15T05:59:32;2.90;;;2.78;;
59856;SDS011;45733;52.668;6.860;2024-02-15T06:01:59;2.38;;;2.28;;
59856;SDS011;45733;52.668;6.860;2024-02-15T06:04:24;2.67;;;2.58;;
59856;SDS011;45733;52.668;6.860;2024-02-15T06:06:51;2.38;;;2.28;;
59856;SDS011;45733;52.668;6.860;2024-02-15T06:09:19;2.53;;;2.42;;
59856;SDS011;45733;52.668;6.860;2024-02-15T06:11:47;3.00;;;2.85;;
59856;SDS011;45733;52.668;6.860;2024-02-15T06:14:12;2.75;;;2.65;;
59856;SDS011;45733;52.668;6.860;2024-02-15T06:16:43;2.95;;;2.78;;
59856;SDS011;45733;52.668;6.860;2024-02-15T06:19:09;2.50;;;2.40;;
59856;SDS011;45733;52.668;6.860;2024-02-15T06:21:35;2.45;;;2.35;;
59856;SDS011;45733;52.668;6.860;2024-02-15T06:24:00;2.50;;;2.40;;
59856;SDS011;45733;52.668;6.860;2024-02-15T06:26:26;2.90;;;2.78;;
59856;SDS011;45733;52.668;6.860;2024-02-15T06:28:53;2.60;;;2.50;;
59856;SDS011;45733;52.668;6.860;2024-02-15T06:31:37;2.55;;;2.45;;
59856;SDS011;45733;52.668;6.860;2024-02-15T06:37:05;3.35;;;3.15;;
59856;SDS011;45733;52.668;6.860;2024-02-15T06:40:03;2.70;;;2.60;;
59856;SDS011;45733;52.668;6.860;2024-02-15T06:42:29;2.72;;;2.63;;
59856;SDS011;45733;52.668;6.860;2024-02-15T06:44:59;2.60;;;2.50;;
59856;SDS011;45733;52.668;6.860;2024-02-15T06:47:24;2.35;;;2.25;;
59856;SDS011;45733;52.668;6.860;2024-02-15T06:49:50;2.45;;;2.35;;
59856;SDS011;45733;52.668;6.860;2024-02-15T06:52:18;2.47;;;2.38;;
59856;SDS011;45733;52.668;6.860;2024-02-15T06:54:43;2.50;;;2.40;;
59856;SDS011;45733;52.668;6.860;2024-02-15T06:57:10;2.42;;;2.33;;
59856;SDS011;45733;52.668;6.860;2024-02-15T06:59:36;2.55;;;2.45;;
59856;SDS011;45733;52.668;6.860;2024-02-15T07:02:11;3.28;;;3.08;;
59856;SDS011;45733;52.668;6.860;2024-02-15T07:04:41;2.40;;;2.30;;
59856;SDS011;45733;52.668;6.860;2024-02-15T07:07:10;2.08;;;1.98;;
59856;SDS011;45733;52.668;6.860;2024-02-15T07:09:37;2.35;;;2.25;;
59856;SDS011;45733;52.668;6.860;2024-02-15T07:12:03;2.28;;;2.17;;
59856;SDS011;45733;52.668;6.860;2024-02-15T07:14:29;3.05;;;2.88;;
59856;SDS011;45733;52.668;6.860;2024-02-15T07:16:55;2.17;;;2.08;;
59856;SDS011;45733;52.668;6.860;2024-02-15T07:19:23;2.22;;;2.13;;
59856;SDS011;45733;52.668;6.860;2024-02-15T07:21:51;3.03;;;2.85;;
59856;SDS011;45733;52.668;6.860;2024-02-15T07:24:22;2.45;;;2.35;;
59856;SDS011;45733;52.668;6.860;2024-02-15T07:26:51;2.60;;;2.50;;
59856;SDS011;45733;52.668;6.860;2024-02-15T07:29:20;2.58;;;2.47;;
59856;SDS011;45733;52.668;6.860;2024-02-15T07:31:48;2.70;;;2.60;;
59856;SDS011;45733;52.668;6.860;2024-02-15T07:34:15;3.17;;;2.97;;
59856;SDS011;45733;52.668;6.860;2024-02-15T07:36:42;2.75;;;2.65;;
59856;SDS011;45733;52.668;6.860;2024-02-15T07:39:08;2.67;;;2.58;;
59856;SDS011;45733;52.668;6.860;2024-02-15T07:41:39;2.83;;;2.72;;
59856;SDS011;45733;52.668;6.860;2024-02-15T07:44:05;3.95;;;3.75;;
59856;SDS011;45733;52.668;6.860;2024-02-15T07:46:31;3.28;;;3.08;;
59856;SDS011;45733;52.668;6.860;2024-02-15T07:48:57;3.03;;;2.92;;
59856;SDS011;45733;52.668;6.860;2024-02-15T07:51:24;3.33;;;3.13;;
59856;SDS011;45733;52.668;6.860;2024-02-15T07:53:51;2.78;;;2.67;;
59856;SDS011;45733;52.668;6.860;2024-02-15T07:56:17;3.05;;;2.85;;
59856;SDS011;45733;52.668;6.860;2024-02-15T07:58:44;2.83;;;2.72;;
59856;SDS011;45733;52.668;6.860;2024-02-15T08:01:15;3.22;;;3.03;;
59856;SDS011;45733;52.668;6.860;2024-02-15T08:03:47;2.70;;;2.60;;
59856;SDS011;45733;52.668;6.860;2024-02-15T08:06:14;2.55;;;2.45;;
59856;SDS011;45733;52.668;6.860;2024-02-15T08:08:42;3.63;;;3.42;;
59856;SDS011;45733;52.668;6.860;2024-02-15T08:11:10;3.60;;;3.40;;
59856;SDS011;45733;52.668;6.860;2024-02-15T08:13:43;3.53;;;3.33;;
59856;SDS011;45733;52.668;6.860;2024-02-15T08:16:10;3.42;;;3.22;;
59856;SDS011;45733;52.668;6.860;2024-02-15T08:18:37;3.47;;;3.28;;
59856;SDS011;45733;52.668;6.860;2024-02-15T08:21:04;3.70;;;3.50;;
59856;SDS011;45733;52.668;6.860;2024-02-15T08:23:30;2.83;;;2.72;;
59856;SDS011;45733;52.668;6.860;2024-02-15T08:25:57;3.22;;;3.03;;
59856;SDS011;45733;52.668;6.860;2024-02-15T08:28:26;3.15;;;2.97;;
59856;SDS011;45733;52.668;6.860;2024-02-15T08:30:54;3.13;;;2.97;;
59856;SDS011;45733;52.668;6.860;2024-02-15T08:33:21;3.15;;;2.95;;
59856;SDS011;45733;52.668;6.860;2024-02-15T08:35:47;3.10;;;2.90;;
59856;SDS011;45733;52.668;6.860;2024-02-15T08:38:12;3.00;;;2.85;;
59856;SDS011;45733;52.668;6.860;2024-02-15T08:40:38;3.20;;;3.00;;
59856;SDS011;45733;52.668;6.860;2024-02-15T08:43:04;3.08;;;2.88;;
59856;SDS011;45733;52.668;6.860;2024-02-15T08:45:30;2.75;;;2.65;;
59856;SDS011;45733;52.668;6.860;2024-02-15T08:47:55;2.60;;;2.50;;
59856;SDS011;45733;52.668;6.860;2024-02-15T08:50:21;3.20;;;3.00;;
59856;SDS011;45733;52.668;6.860;2024-02-15T08:52:49;2.85;;;2.72;;
59856;SDS011;45733;52.668;6.860;2024-02-15T08:55:15;2.50;;;2.40;;
59856;SDS011;45733;52.668;6.860;2024-02-15T08:57:42;2.83;;;2.72;;
59856;SDS011;45733;52.668;6.860;2024-02-15T09:00:09;3.00;;;2.85;;
59856;SDS011;45733;52.668;6.860;2024-02-15T09:02:44;3.17;;;2.97;;
59856;SDS011;45733;52.668;6.860;2024-02-15T09:05:11;2.63;;;2.53;;
59856;SDS011;45733;52.668;6.860;2024-02-15T09:07:40;2.92;;;2.75;;
59856;SDS011;45733;52.668;6.860;2024-02-15T09:10:08;2.42;;;2.33;;
59856;SDS011;45733;52.668;6.860;2024-02-15T09:12:41;2.85;;;2.75;;
59856;SDS011;45733;52.668;6.860;2024-02-15T09:15:08;2.42;;;2.33;;
59856;SDS011;45733;52.668;6.860;2024-02-15T09:17:35;2.75;;;2.63;;
59856;SDS011;45733;52.668;6.860;2024-02-15T09:20:11;2.72;;;2.63;;
59856;SDS011;45733;52.668;6.860;2024-02-15T09:22:48;2.58;;;2.47;;
59856;SDS011;45733;52.668;6.860;2024-02-15T09:25:17;3.03;;;2.83;;
59856;SDS011;45733;52.668;6.860;2024-02-15T09:27:43;3.00;;;2.80;;
59856;SDS011;45733;52.668;6.860;2024-02-15T09:30:10;3.10;;;2.90;;
59856;SDS011;45733;52.668;6.860;2024-02-15T09:32:37;3.42;;;3.22;;
59856;SDS011;45733;52.668;6.860;2024-02-15T09:35:04;3.10;;;2.90;;
59856;SDS011;45733;52.668;6.860;2024-02-15T09:37:34;2.90;;;2.78;;
59856;SDS011;45733;52.668;6.860;2024-02-15T09:40:07;3.20;;;3.00;;
59856;SDS011;45733;52.668;6.860;2024-02-15T09:42:40;3.95;;;3.75;;
59856;SDS011;45733;52.668;6.860;2024-02-15T09:45:06;4.28;;;4.05;;
59856;SDS011;45733;52.668;6.860;2024-02-15T09:47:36;4.47;;;4.18;;
59856;SDS011;45733;52.668;6.860;2024-02-15T09:50:02;3.67;;;3.47;;
59856;SDS011;45733;52.668;6.860;2024-02-15T09:52:36;4.55;;;4.30;;
59856;SDS011;45733;52.668;6.860;2024-02-15T09:55:05;4.18;;;3.95;;
59856;SDS011;45733;52.668;6.860;2024-02-15T09:57:38;4.43;;;4.15;;
59856;SDS011;45733;52.668;6.860;2024-02-15T10:00:07;3.72;;;3.53;;
59856;SDS011;45733;52.668;6.860;2024-02-15T10:02:38;3.65;;;3.45;;
59856;SDS011;45733;52.668;6.860;2024-02-15T10:05:12;4.13;;;3.90;;
59856;SDS011;45733;52.668;6.860;2024-02-15T10:07:42;3.95;;;3.75;;
59856;SDS011;45733;52.668;6.860;2024-02-15T10:12:45;3.90;;;3.70;;
59856;SDS011;45733;52.668;6.860;2024-02-15T10:18:03;3.70;;;3.50;;
59856;SDS011;45733;52.668;6.860;2024-02-15T10:20:32;4.57;;;4.30;;
59856;SDS011;45733;52.668;6.860;2024-02-15T10:25:28;4.05;;;3.85;;
59856;SDS011;45733;52.668;6.860;2024-02-15T10:28:04;3.67;;;3.47;;
59856;SDS011;45733;52.668;6.860;2024-02-15T10:30:37;4.50;;;4.20;;
59856;SDS011;45733;52.668;6.860;2024-02-15T10:33:09;4.35;;;4.10;;
59856;SDS011;45733;52.668;6.860;2024-02-15T10:35:35;4.00;;;3.80;;
59856;SDS011;45733;52.668;6.860;2024-02-15T10:38:05;4.55;;;4.25;;
59856;SDS011;45733;52.668;6.860;2024-02-15T10:40:35;4.35;;;4.10;;
59856;SDS011;45733;52.668;6.860;2024-02-15T10:43:05;5.00;;;4.70;;
59856;SDS011;45733;52.668;6.860;2024-02-15T10:45:31;4.78;;;4.47;;
59856;SDS011;45733;52.668;6.860;2024-02-15T10:47:58;4.88;;;4.57;;
59856;SDS011;45733;52.668;6.860;2024-02-15T10:50:24;4.50;;;4.22;;
59856;SDS011;45733;52.668;6.860;2024-02-15T10:52:59;3.70;;;3.50;;
59856;SDS011;45733;52.668;6.860;2024-02-15T10:55:51;5.30;;;5.00;;
59856;SDS011;45733;52.668;6.860;2024-02-15T10:58:23;5.43;;;5.13;;
59856;SDS011;45733;52.668;6.860;2024-02-15T11:00:54;4.88;;;4.57;;
59856;SDS011;45733;52.668;6.860;2024-02-15T11:03:24;4.80;;;4.50;;
59856;SDS011;45733;52.668;6.860;2024-02-15T11:05:53;5.03;;;4.72;;
59856;SDS011;45733;52.668;6.860;2024-02-15T11:08:23;4.07;;;3.88;;
59856;SDS011;45733;52.668;6.860;2024-02-15T11:10:49;4.68;;;4.38;;
59856;SDS011;45733;52.668;6.860;2024-02-15T11:13:15;4.57;;;4.30;;
59856;SDS011;45733;52.668;6.860;2024-02-15T11:15:45;3.85;;;3.65;;
59856;SDS011;45733;52.668;6.860;2024-02-15T11:19:00;4.18;;;3.97;;
59856;SDS011;45733;52.668;6.860;2024-02-15T11:21:17;3.78;;;3.58;;
59856;SDS011;45733;52.668;6.860;2024-02-15T11:23:49;3.72;;;3.53;;
59856;SDS011;45733;52.668;6.860;2024-02-15T11:26:42;4.28;;;4.05;;
59856;SDS011;45733;52.668;6.860;2024-02-15T11:29:47;3.70;;;3.50;;
59856;SDS011;45733;52.668;6.860;2024-02-15T11:35:05;3.03;;;2.88;;
59856;SDS011;45733;52.668;6.860;2024-02-15T11:43:09;3.55;;;3.35;;
59856;SDS011;45733;52.668;6.860;2024-02-15T11:45:36;3.78;;;3.58;;
59856;SDS011;45733;52.668;6.860;2024-02-15T11:48:09;4.03;;;3.83;;
59856;SDS011;45733;52.668;6.860;2024-02-15T11:50:39;3.78;;;3.58;;
59856;SDS011;45733;52.668;6.860;2024-02-15T11:53:06;3.67;;;3.47;;
59856;SDS011;45733;52.668;6.860;2024-02-15T11:55:40;3.78;;;3.58;;
59856;SDS011;45733;52.668;6.860;2024-02-15T11:58:07;3.58;;;3.38;;
59856;SDS011;45733;52.668;6.860;2024-02-15T12:00:33;3.55;;;3.35;;
59856;SDS011;45733;52.668;6.860;2024-02-15T12:03:18;2.70;;;2.60;;
59856;SDS011;45733;52.668;6.860;2024-02-15T12:06:03;3.50;;;3.30;;
59856;SDS011;45733;52.668;6.860;2024-02-15T12:08:48;3.25;;;3.05;;
59856;SDS011;45733;52.668;6.860;2024-02-15T12:11:33;3.00;;;2.85;;
59856;SDS011;45733;52.668;6.860;2024-02-15T12:14:18;4.00;;;3.80;;
59856;SDS011;45733;52.668;6.860;2024-02-15T12:17:04;3.60;;;3.40;;
59856;SDS011;45733;52.668;6.860;2024-02-15T12:19:53;3.42;;;3.22;;
59856;SDS011;45733;52.668;6.860;2024-02-15T12:22:28;4.20;;;4.00;;
59856;SDS011;45733;52.668;6.860;2024-02-15T12:25:00;3.35;;;3.15;;
59856;SDS011;45733;52.668;6.860;2024-02-15T12:27:28;3.13;;;2.95;;
59856;SDS011;45733;52.668;6.860;2024-02-15T12:29:58;3.30;;;3.10;;
59856;SDS011;45733;52.668;6.860;2024-02-15T12:32:25;3.40;;;3.20;;
59856;SDS011;45733;52.668;6.860;2024-02-15T12:34:52;3.47;;;3.28;;
59856;SDS011;45733;52.668;6.860;2024-02-15T12:37:19;3.10;;;2.90;;
59856;SDS011;45733;52.668;6.860;2024-02-15T12:39:49;2.78;;;2.65;;
59856;SDS011;45733;52.668;6.860;2024-02-15T12:42:15;2.95;;;2.83;;
59856;SDS011;45733;52.668;6.860;2024-02-15T12:44:46;3.17;;;2.97;;
59856;SDS011;45733;52.668;6.860;2024-02-15T12:47:19;3.05;;;2.85;;
59856;SDS011;45733;52.668;6.860;2024-02-15T12:49:46;3.45;;;3.25;;
59856;SDS011;45733;52.668;6.860;2024-02-15T12:55:15;3.22;;;3.03;;
59856;SDS011;45733;52.668;6.860;2024-02-15T12:57:43;3.95;;;3.75;;
59856;SDS011;45733;52.668;6.860;2024-02-15T13:00:13;3.58;;;3.38;;
59856;SDS011;45733;52.668;6.860;2024-02-15T13:02:46;3.67;;;3.47;;
59856;SDS011;45733;52.668;6.860;2024-02-15T13:05:19;3.42;;;3.22;;
59856;SDS011;45733;52.668;6.860;2024-02-15T13:07:47;3.50;;;3.30;;
59856;SDS011;45733;52.668;6.860;2024-02-15T13:10:13;3.45;;;3.25;;
59856;SDS011;45733;52.668;6.860;2024-02-15T13:12:43;3.58;;;3.38;;
59856;SDS011;45733;52.668;6.860;2024-02-15T13:15:10;3.53;;;3.33;;
59856;SDS011;45733;52.668;6.860;2024-02-15T13:17:49;3.67;;;3.47;;
59856;SDS011;45733;52.668;6.860;2024-02-15T13:20:16;4.45;;;4.15;;
59856;SDS011;45733;52.668;6.860;2024-02-15T13:22:45;3.67;;;3.47;;
59856;SDS011;45733;52.668;6.860;2024-02-15T13:25:14;3.80;;;3.60;;
59856;SDS011;45733;52.668;6.860;2024-02-15T13:27:46;4.57;;;4.28;;
59856;SDS011;45733;52.668;6.860;2024-02-15T13:30:12;4.30;;;4.05;;
59856;SDS011;45733;52.668;6.860;2024-02-15T13:32:39;3.95;;;3.75;;
59856;SDS011;45733;52.668;6.860;2024-02-15T13:35:08;4.57;;;4.28;;
59856;SDS011;45733;52.668;6.860;2024-02-15T13:37:46;4.72;;;4.43;;
59856;SDS011;45733;52.668;6.860;2024-02-15T13:40:12;5.05;;;4.75;;
59856;SDS011;45733;52.668;6.860;2024-02-15T13:42:42;3.83;;;3.60;;
59856;SDS011;45733;52.668;6.860;2024-02-15T13:45:38;3.78;;;3.58;;
59856;SDS011;45733;52.668;6.860;2024-02-15T13:48:05;3.50;;;3.30;;
59856;SDS011;45733;52.668;6.860;2024-02-15T13:50:35;3.63;;;3.42;;
59856;SDS011;45733;52.668;6.860;2024-02-15T13:53:03;3.58;;;3.38;;
59856;SDS011;45733;52.668;6.860;2024-02-15T13:55:29;4.40;;;4.13;;
59856;SDS011;45733;52.668;6.860;2024-02-15T13:57:56;4.30;;;4.05;;
59856;SDS011;45733;52.668;6.860;2024-02-15T14:00:22;4.00;;;3.78;;
59856;SDS011;45733;52.668;6.860;2024-02-15T14:02:52;3.85;;;3.65;;
59856;SDS011;45733;52.668;6.860;2024-02-15T14:05:19;4.28;;;4.03;;
59856;SDS011;45733;52.668;6.860;2024-02-15T14:07:56;3.95;;;3.75;;
59856;SDS011;45733;52.668;6.860;2024-02-15T14:12:49;4.25;;;4.00;;
59856;SDS011;45733;52.668;6.860;2024-02-15T14:15:30;4.50;;;4.25;;
59856;SDS011;45733;52.668;6.860;2024-02-15T14:17:59;4.22;;;3.97;;
59856;SDS011;45733;52.668;6.860;2024-02-15T14:20:26;4.75;;;4.45;;
59856;SDS011;45733;52.668;6.860;2024-02-15T14:22:53;5.30;;;5.00;;
59856;SDS011;45733;52.668;6.860;2024-02-15T14:25:22;5.40;;;5.10;;
59856;SDS011;45733;52.668;6.860;2024-02-15T14:27:48;5.35;;;5.05;;
59856;SDS011;45733;52.668;6.860;2024-02-15T14:30:14;4.05;;;3.80;;
59856;SDS011;45733;52.668;6.860;2024-02-15T14:32:58;4.60;;;4.30;;
59856;SDS011;45733;52.668;6.860;2024-02-15T14:35:37;5.32;;;5.03;;
59856;SDS011;45733;52.668;6.860;2024-02-15T14:38:05;4.45;;;4.15;;
59856;SDS011;45733;52.668;6.860;2024-02-15T14:40:33;5.32;;;5.00;;
59856;SDS011;45733;52.668;6.860;2024-02-15T14:43:00;5.80;;;5.43;;
59856;SDS011;45733;52.668;6.860;2024-02-15T14:45:27;4.85;;;4.55;;
59856;SDS011;45733;52.668;6.860;2024-02-15T14:47:53;4.45;;;4.15;;
59856;SDS011;45733;52.668;6.860;2024-02-15T14:50:19;4.45;;;4.15;;
59856;SDS011;45733;52.668;6.860;2024-02-15T14:52:46;4.93;;;4.63;;
59856;SDS011;45733;52.668;6.860;2024-02-15T14:55:13;4.57;;;4.28;;
59856;SDS011;45733;52.668;6.860;2024-02-15T14:57:39;4.47;;;4.18;;
59856;SDS011;45733;52.668;6.860;2024-02-15T15:00:07;4.55;;;4.25;;
59856;SDS011;45733;52.668;6.860;2024-02-15T15:02:41;4.95;;;4.65;;
59856;SDS011;45733;52.668;6.860;2024-02-15T15:05:13;4.25;;;3.97;;
59856;SDS011;45733;52.668;6.860;2024-02-15T15:07:58;4.63;;;4.32;;
59856;SDS011;45733;52.668;6.860;2024-02-15T15:10:44;4.22;;;3.95;;
59856;SDS011;45733;52.668;6.860;2024-02-15T15:13:30;4.45;;;4.15;;
59856;SDS011;45733;52.668;6.860;2024-02-15T15:15:59;5.38;;;5.07;;
59856;SDS011;45733;52.668;6.860;2024-02-15T15:18:26;5.80;;;5.45;;
59856;SDS011;45733;52.668;6.860;2024-02-15T15:20:52;4.97;;;4.68;;
59856;SDS011;45733;52.668;6.860;2024-02-15T15:23:18;5.38;;;5.07;;
59856;SDS011;45733;52.668;6.860;2024-02-15T15:25:44;5.00;;;4.70;;
59856;SDS011;45733;52.668;6.860;2024-02-15T15:28:10;5.13;;;4.82;;